Highland Township, Michigan
Current Conditions -  °F | °C
As of 8:53 PM on Tuesday 25 Nov 2014 (Local Time) from KPTK Reporting Station
Light Snow Light Snow  
Wind Chill: 22°   Ceiling: 2400
Heat Index: 30°   Visibility: 9mi
Dew Point: 20°   Wind: 9mph
Humidity: 66%   Direction: 290°WNW
Pressure: 30.14"   Gusts: NA
Location:  42.6632°N, 83.6457°W
Report Text: KPTK 260153Z 29008KT 9SM -SN OVC024 M01/M07 A3014 RMK AO2 SLP216 P0000 T10111067
Loading
Personal Weather Stations






























Interactive Weather Map New forecast layout! Learn more

10-Day Weather Forecast

Advertisements
Track Severe Weather on mobile